sensor_id;sensor_type;location;lat;lon;timestamp;P1;durP1;ratioP1;P2;durP2;ratioP2
12871;SDS011;6504;53.766;9.626;2023-08-17T00:01:10;3.73;;;2.03;;
12871;SDS011;6504;53.766;9.626;2023-08-17T00:03:40;3.10;;;2.03;;
12871;SDS011;6504;53.766;9.626;2023-08-17T00:06:08;4.47;;;2.30;;
12871;SDS011;6504;53.766;9.626;2023-08-17T00:08:36;5.77;;;2.63;;
12871;SDS011;6504;53.766;9.626;2023-08-17T00:11:04;3.30;;;2.13;;
12871;SDS011;6504;53.766;9.626;2023-08-17T00:13:32;4.93;;;2.33;;
12871;SDS011;6504;53.766;9.626;2023-08-17T00:16:00;4.37;;;2.30;;
12871;SDS011;6504;53.766;9.626;2023-08-17T00:18:29;4.27;;;2.60;;
12871;SDS011;6504;53.766;9.626;2023-08-17T00:20:58;4.20;;;2.33;;
12871;SDS011;6504;53.766;9.626;2023-08-17T00:23:26;4.60;;;2.53;;
12871;SDS011;6504;53.766;9.626;2023-08-17T00:25:54;3.40;;;2.40;;
12871;SDS011;6504;53.766;9.626;2023-08-17T00:28:22;4.17;;;2.80;;
12871;SDS011;6504;53.766;9.626;2023-08-17T00:30:51;4.10;;;2.60;;
12871;SDS011;6504;53.766;9.626;2023-08-17T00:33:19;5.33;;;2.53;;
12871;SDS011;6504;53.766;9.626;2023-08-17T00:35:47;3.83;;;2.37;;
12871;SDS011;6504;53.766;9.626;2023-08-17T00:38:17;5.63;;;2.80;;
12871;SDS011;6504;53.766;9.626;2023-08-17T00:40:45;3.77;;;2.40;;
12871;SDS011;6504;53.766;9.626;2023-08-17T00:43:13;4.87;;;2.60;;
12871;SDS011;6504;53.766;9.626;2023-08-17T00:45:42;5.40;;;2.73;;
12871;SDS011;6504;53.766;9.626;2023-08-17T00:48:12;4.10;;;2.80;;
12871;SDS011;6504;53.766;9.626;2023-08-17T00:50:41;4.63;;;2.97;;
12871;SDS011;6504;53.766;9.626;2023-08-17T00:53:11;3.13;;;2.50;;
12871;SDS011;6504;53.766;9.626;2023-08-17T00:55:41;4.97;;;2.80;;
12871;SDS011;6504;53.766;9.626;2023-08-17T00:58:10;5.10;;;2.30;;
12871;SDS011;6504;53.766;9.626;2023-08-17T01:00:39;3.00;;;2.03;;
12871;SDS011;6504;53.766;9.626;2023-08-17T01:03:07;4.40;;;2.20;;
12871;SDS011;6504;53.766;9.626;2023-08-17T01:05:35;2.60;;;2.37;;
12871;SDS011;6504;53.766;9.626;2023-08-17T01:08:04;3.20;;;1.93;;
12871;SDS011;6504;53.766;9.626;2023-08-17T01:10:34;4.73;;;2.30;;
12871;SDS011;6504;53.766;9.626;2023-08-17T01:13:15;3.53;;;2.20;;
12871;SDS011;6504;53.766;9.626;2023-08-17T01:15:49;5.07;;;2.10;;
12871;SDS011;6504;53.766;9.626;2023-08-17T01:18:21;4.03;;;2.27;;
12871;SDS011;6504;53.766;9.626;2023-08-17T01:20:51;3.93;;;1.97;;
12871;SDS011;6504;53.766;9.626;2023-08-17T01:23:22;3.80;;;2.60;;
12871;SDS011;6504;53.766;9.626;2023-08-17T01:25:50;3.97;;;2.30;;
12871;SDS011;6504;53.766;9.626;2023-08-17T01:28:20;2.80;;;2.30;;
12871;SDS011;6504;53.766;9.626;2023-08-17T01:30:49;6.67;;;2.47;;
12871;SDS011;6504;53.766;9.626;2023-08-17T01:33:24;4.13;;;2.60;;
12871;SDS011;6504;53.766;9.626;2023-08-17T01:36:01;4.00;;;2.60;;
12871;SDS011;6504;53.766;9.626;2023-08-17T01:38:35;3.40;;;2.13;;
12871;SDS011;6504;53.766;9.626;2023-08-17T01:41:04;3.97;;;2.60;;
12871;SDS011;6504;53.766;9.626;2023-08-17T01:43:33;7.67;;;2.90;;
12871;SDS011;6504;53.766;9.626;2023-08-17T01:46:02;4.33;;;2.67;;
12871;SDS011;6504;53.766;9.626;2023-08-17T01:48:30;5.83;;;2.77;;
12871;SDS011;6504;53.766;9.626;2023-08-17T01:50:59;4.17;;;2.43;;
12871;SDS011;6504;53.766;9.626;2023-08-17T01:53:27;3.90;;;2.63;;
12871;SDS011;6504;53.766;9.626;2023-08-17T01:55:56;4.77;;;2.73;;
12871;SDS011;6504;53.766;9.626;2023-08-17T01:58:24;4.23;;;2.83;;
12871;SDS011;6504;53.766;9.626;2023-08-17T02:00:53;4.00;;;3.03;;
12871;SDS011;6504;53.766;9.626;2023-08-17T02:03:21;4.77;;;2.87;;
12871;SDS011;6504;53.766;9.626;2023-08-17T02:05:49;3.83;;;2.77;;
12871;SDS011;6504;53.766;9.626;2023-08-17T02:08:17;4.07;;;3.10;;
12871;SDS011;6504;53.766;9.626;2023-08-17T02:10:45;4.27;;;2.60;;
12871;SDS011;6504;53.766;9.626;2023-08-17T02:13:15;7.23;;;2.60;;
12871;SDS011;6504;53.766;9.626;2023-08-17T02:15:43;5.40;;;2.50;;
12871;SDS011;6504;53.766;9.626;2023-08-17T02:18:12;4.07;;;2.40;;
12871;SDS011;6504;53.766;9.626;2023-08-17T02:20:40;4.77;;;2.83;;
12871;SDS011;6504;53.766;9.626;2023-08-17T02:23:08;5.13;;;2.60;;
12871;SDS011;6504;53.766;9.626;2023-08-17T02:25:37;4.37;;;2.60;;
12871;SDS011;6504;53.766;9.626;2023-08-17T02:28:06;4.17;;;3.07;;
12871;SDS011;6504;53.766;9.626;2023-08-17T02:30:35;5.00;;;2.60;;
12871;SDS011;6504;53.766;9.626;2023-08-17T02:33:03;4.70;;;2.60;;
12871;SDS011;6504;53.766;9.626;2023-08-17T02:35:32;3.33;;;2.63;;
12871;SDS011;6504;53.766;9.626;2023-08-17T02:38:00;4.70;;;2.80;;
12871;SDS011;6504;53.766;9.626;2023-08-17T02:40:28;4.43;;;2.53;;
12871;SDS011;6504;53.766;9.626;2023-08-17T02:42:56;3.93;;;2.87;;
12871;SDS011;6504;53.766;9.626;2023-08-17T02:45:24;4.20;;;3.20;;
12871;SDS011;6504;53.766;9.626;2023-08-17T02:47:53;4.60;;;2.80;;
12871;SDS011;6504;53.766;9.626;2023-08-17T02:50:21;6.40;;;3.50;;
12871;SDS011;6504;53.766;9.626;2023-08-17T02:52:49;4.30;;;2.90;;
12871;SDS011;6504;53.766;9.626;2023-08-17T02:55:17;3.17;;;2.80;;
12871;SDS011;6504;53.766;9.626;2023-08-17T02:57:45;3.73;;;3.30;;
12871;SDS011;6504;53.766;9.626;2023-08-17T03:00:14;6.87;;;3.60;;
12871;SDS011;6504;53.766;9.626;2023-08-17T03:02:42;4.60;;;3.40;;
12871;SDS011;6504;53.766;9.626;2023-08-17T03:05:11;3.27;;;3.00;;
12871;SDS011;6504;53.766;9.626;2023-08-17T03:07:39;6.27;;;3.20;;
12871;SDS011;6504;53.766;9.626;2023-08-17T03:10:07;4.57;;;2.90;;
12871;SDS011;6504;53.766;9.626;2023-08-17T03:12:36;4.77;;;3.03;;
12871;SDS011;6504;53.766;9.626;2023-08-17T03:15:05;5.97;;;3.33;;
12871;SDS011;6504;53.766;9.626;2023-08-17T03:17:34;5.17;;;3.20;;
12871;SDS011;6504;53.766;9.626;2023-08-17T03:20:02;6.07;;;3.73;;
12871;SDS011;6504;53.766;9.626;2023-08-17T03:22:34;6.13;;;3.47;;
12871;SDS011;6504;53.766;9.626;2023-08-17T03:25:02;4.93;;;3.50;;
12871;SDS011;6504;53.766;9.626;2023-08-17T03:27:31;4.57;;;3.40;;
12871;SDS011;6504;53.766;9.626;2023-08-17T03:29:59;5.90;;;3.80;;
12871;SDS011;6504;53.766;9.626;2023-08-17T03:32:27;5.57;;;3.53;;
12871;SDS011;6504;53.766;9.626;2023-08-17T03:34:55;4.03;;;3.50;;
12871;SDS011;6504;53.766;9.626;2023-08-17T03:37:23;5.73;;;4.00;;
12871;SDS011;6504;53.766;9.626;2023-08-17T03:39:53;6.87;;;4.40;;
12871;SDS011;6504;53.766;9.626;2023-08-17T03:42:21;5.37;;;3.87;;
12871;SDS011;6504;53.766;9.626;2023-08-17T03:44:49;5.63;;;3.73;;
12871;SDS011;6504;53.766;9.626;2023-08-17T03:47:18;7.13;;;4.10;;
12871;SDS011;6504;53.766;9.626;2023-08-17T03:49:46;5.97;;;4.20;;
12871;SDS011;6504;53.766;9.626;2023-08-17T03:52:14;7.47;;;4.17;;
12871;SDS011;6504;53.766;9.626;2023-08-17T03:54:42;6.50;;;4.03;;
12871;SDS011;6504;53.766;9.626;2023-08-17T03:57:11;5.53;;;4.60;;
12871;SDS011;6504;53.766;9.626;2023-08-17T03:59:40;6.27;;;4.17;;
12871;SDS011;6504;53.766;9.626;2023-08-17T04:02:08;7.43;;;4.43;;
12871;SDS011;6504;53.766;9.626;2023-08-17T04:04:37;7.20;;;4.50;;
12871;SDS011;6504;53.766;9.626;2023-08-17T04:07:05;4.40;;;3.80;;
12871;SDS011;6504;53.766;9.626;2023-08-17T04:09:33;5.83;;;4.30;;
12871;SDS011;6504;53.766;9.626;2023-08-17T04:12:01;6.40;;;3.97;;
12871;SDS011;6504;53.766;9.626;2023-08-17T04:14:32;6.80;;;4.30;;
12871;SDS011;6504;53.766;9.626;2023-08-17T04:17:00;5.57;;;3.97;;
12871;SDS011;6504;53.766;9.626;2023-08-17T04:19:28;6.47;;;4.00;;
12871;SDS011;6504;53.766;9.626;2023-08-17T04:21:56;5.70;;;4.10;;
12871;SDS011;6504;53.766;9.626;2023-08-17T04:24:24;4.40;;;4.00;;
12871;SDS011;6504;53.766;9.626;2023-08-17T04:26:52;5.57;;;3.80;;
12871;SDS011;6504;53.766;9.626;2023-08-17T04:29:21;6.27;;;3.70;;
12871;SDS011;6504;53.766;9.626;2023-08-17T04:31:50;5.50;;;3.80;;
12871;SDS011;6504;53.766;9.626;2023-08-17T04:34:18;6.10;;;4.07;;
12871;SDS011;6504;53.766;9.626;2023-08-17T04:36:47;9.60;;;4.53;;
12871;SDS011;6504;53.766;9.626;2023-08-17T04:39:15;4.77;;;4.23;;
12871;SDS011;6504;53.766;9.626;2023-08-17T04:41:43;5.97;;;3.83;;
12871;SDS011;6504;53.766;9.626;2023-08-17T04:44:11;6.37;;;3.97;;
12871;SDS011;6504;53.766;9.626;2023-08-17T04:46:39;6.00;;;3.60;;
12871;SDS011;6504;53.766;9.626;2023-08-17T04:49:09;6.23;;;4.30;;
12871;SDS011;6504;53.766;9.626;2023-08-17T04:51:37;6.87;;;3.83;;
12871;SDS011;6504;53.766;9.626;2023-08-17T04:54:05;4.27;;;3.27;;
12871;SDS011;6504;53.766;9.626;2023-08-17T04:56:33;6.50;;;3.50;;
12871;SDS011;6504;53.766;9.626;2023-08-17T04:59:01;5.33;;;3.37;;
12871;SDS011;6504;53.766;9.626;2023-08-17T05:01:29;6.03;;;3.37;;
12871;SDS011;6504;53.766;9.626;2023-08-17T05:03:58;4.23;;;2.97;;
12871;SDS011;6504;53.766;9.626;2023-08-17T05:06:29;3.63;;;3.23;;
12871;SDS011;6504;53.766;9.626;2023-08-17T05:08:57;4.87;;;3.20;;
12871;SDS011;6504;53.766;9.626;2023-08-17T05:11:25;5.67;;;3.00;;
12871;SDS011;6504;53.766;9.626;2023-08-17T05:13:53;4.67;;;3.23;;
12871;SDS011;6504;53.766;9.626;2023-08-17T05:16:21;3.80;;;3.03;;
12871;SDS011;6504;53.766;9.626;2023-08-17T05:18:49;4.47;;;3.33;;
12871;SDS011;6504;53.766;9.626;2023-08-17T05:21:17;3.97;;;2.70;;
12871;SDS011;6504;53.766;9.626;2023-08-17T05:23:47;6.40;;;3.30;;
12871;SDS011;6504;53.766;9.626;2023-08-17T05:26:15;5.27;;;3.40;;
12871;SDS011;6504;53.766;9.626;2023-08-17T05:28:43;4.73;;;3.57;;
12871;SDS011;6504;53.766;9.626;2023-08-17T05:31:11;4.73;;;3.30;;
12871;SDS011;6504;53.766;9.626;2023-08-17T05:33:39;5.60;;;3.57;;
12871;SDS011;6504;53.766;9.626;2023-08-17T05:36:07;6.03;;;3.53;;
12871;SDS011;6504;53.766;9.626;2023-08-17T05:38:35;4.07;;;3.23;;
12871;SDS011;6504;53.766;9.626;2023-08-17T05:41:05;4.70;;;3.53;;
12871;SDS011;6504;53.766;9.626;2023-08-17T05:43:33;4.57;;;3.10;;
12871;SDS011;6504;53.766;9.626;2023-08-17T05:46:01;4.37;;;3.10;;
12871;SDS011;6504;53.766;9.626;2023-08-17T05:48:29;3.40;;;3.10;;
12871;SDS011;6504;53.766;9.626;2023-08-17T05:50:57;5.93;;;3.73;;
12871;SDS011;6504;53.766;9.626;2023-08-17T05:53:25;4.50;;;3.10;;
12871;SDS011;6504;53.766;9.626;2023-08-17T05:55:53;3.33;;;3.03;;
12871;SDS011;6504;53.766;9.626;2023-08-17T05:58:23;3.77;;;3.10;;
12871;SDS011;6504;53.766;9.626;2023-08-17T06:00:51;5.10;;;3.33;;
12871;SDS011;6504;53.766;9.626;2023-08-17T06:03:19;3.70;;;3.20;;
12871;SDS011;6504;53.766;9.626;2023-08-17T06:05:47;3.83;;;2.80;;
12871;SDS011;6504;53.766;9.626;2023-08-17T06:08:19;4.33;;;2.90;;
12871;SDS011;6504;53.766;9.626;2023-08-17T06:10:47;4.80;;;3.03;;
12871;SDS011;6504;53.766;9.626;2023-08-17T06:13:15;4.67;;;3.60;;
12871;SDS011;6504;53.766;9.626;2023-08-17T06:15:44;3.57;;;2.90;;
12871;SDS011;6504;53.766;9.626;2023-08-17T06:18:12;5.60;;;2.97;;
12871;SDS011;6504;53.766;9.626;2023-08-17T06:20:41;4.57;;;3.07;;
12871;SDS011;6504;53.766;9.626;2023-08-17T06:23:09;3.50;;;3.13;;
12871;SDS011;6504;53.766;9.626;2023-08-17T06:25:37;5.47;;;4.00;;
12871;SDS011;6504;53.766;9.626;2023-08-17T06:28:05;5.17;;;4.10;;
12871;SDS011;6504;53.766;9.626;2023-08-17T06:30:34;4.83;;;4.20;;
12871;SDS011;6504;53.766;9.626;2023-08-17T06:33:03;6.10;;;4.30;;
12871;SDS011;6504;53.766;9.626;2023-08-17T06:35:32;7.33;;;4.30;;
12871;SDS011;6504;53.766;9.626;2023-08-17T06:38:00;4.83;;;4.13;;
12871;SDS011;6504;53.766;9.626;2023-08-17T06:40:28;5.53;;;4.70;;
12871;SDS011;6504;53.766;9.626;2023-08-17T06:42:56;5.87;;;4.17;;
12871;SDS011;6504;53.766;9.626;2023-08-17T06:45:24;4.73;;;4.33;;
12871;SDS011;6504;53.766;9.626;2023-08-17T06:47:52;6.37;;;4.47;;
12871;SDS011;6504;53.766;9.626;2023-08-17T06:50:22;6.87;;;4.17;;
12871;SDS011;6504;53.766;9.626;2023-08-17T06:52:50;6.73;;;4.10;;
12871;SDS011;6504;53.766;9.626;2023-08-17T06:55:18;6.33;;;4.43;;
12871;SDS011;6504;53.766;9.626;2023-08-17T06:57:46;7.33;;;4.13;;
12871;SDS011;6504;53.766;9.626;2023-08-17T07:00:16;7.17;;;4.00;;
12871;SDS011;6504;53.766;9.626;2023-08-17T07:02:46;5.33;;;4.17;;
12871;SDS011;6504;53.766;9.626;2023-08-17T07:05:22;7.83;;;4.20;;
12871;SDS011;6504;53.766;9.626;2023-08-17T07:07:51;5.47;;;4.03;;
12871;SDS011;6504;53.766;9.626;2023-08-17T07:10:20;5.03;;;4.23;;
12871;SDS011;6504;53.766;9.626;2023-08-17T07:12:48;6.13;;;3.83;;
12871;SDS011;6504;53.766;9.626;2023-08-17T07:15:16;6.63;;;4.47;;
12871;SDS011;6504;53.766;9.626;2023-08-17T07:17:44;4.93;;;3.57;;
12871;SDS011;6504;53.766;9.626;2023-08-17T07:20:12;5.00;;;3.80;;
12871;SDS011;6504;53.766;9.626;2023-08-17T07:22:44;6.57;;;3.97;;
12871;SDS011;6504;53.766;9.626;2023-08-17T07:25:12;5.13;;;3.70;;
12871;SDS011;6504;53.766;9.626;2023-08-17T07:27:40;6.73;;;3.43;;
12871;SDS011;6504;53.766;9.626;2023-08-17T07:30:09;4.73;;;3.20;;
12871;SDS011;6504;53.766;9.626;2023-08-17T07:32:38;5.77;;;4.00;;
12871;SDS011;6504;53.766;9.626;2023-08-17T07:35:06;4.87;;;3.60;;
12871;SDS011;6504;53.766;9.626;2023-08-17T07:37:36;4.77;;;3.17;;
12871;SDS011;6504;53.766;9.626;2023-08-17T07:40:06;4.23;;;3.30;;
12871;SDS011;6504;53.766;9.626;2023-08-17T07:42:35;4.93;;;3.10;;
12871;SDS011;6504;53.766;9.626;2023-08-17T07:45:04;5.17;;;3.47;;
12871;SDS011;6504;53.766;9.626;2023-08-17T07:47:34;5.83;;;3.40;;
12871;SDS011;6504;53.766;9.626;2023-08-17T07:50:03;6.43;;;3.60;;
12871;SDS011;6504;53.766;9.626;2023-08-17T07:52:32;4.43;;;3.10;;
12871;SDS011;6504;53.766;9.626;2023-08-17T07:55:00;3.77;;;2.90;;
12871;SDS011;6504;53.766;9.626;2023-08-17T07:57:29;5.63;;;3.70;;
12871;SDS011;6504;53.766;9.626;2023-08-17T07:59:57;3.47;;;2.73;;
12871;SDS011;6504;53.766;9.626;2023-08-17T08:02:25;5.20;;;3.03;;
12871;SDS011;6504;53.766;9.626;2023-08-17T08:04:54;5.13;;;3.27;;
12871;SDS011;6504;53.766;9.626;2023-08-17T08:07:22;4.83;;;3.20;;
12871;SDS011;6504;53.766;9.626;2023-08-17T08:09:50;4.33;;;3.23;;
12871;SDS011;6504;53.766;9.626;2023-08-17T08:12:18;4.13;;;3.20;;
12871;SDS011;6504;53.766;9.626;2023-08-17T08:14:48;5.43;;;3.27;;
12871;SDS011;6504;53.766;9.626;2023-08-17T08:17:17;3.50;;;2.93;;
12871;SDS011;6504;53.766;9.626;2023-08-17T08:19:46;3.77;;;2.80;;
12871;SDS011;6504;53.766;9.626;2023-08-17T08:22:14;4.60;;;3.20;;
12871;SDS011;6504;53.766;9.626;2023-08-17T08:24:42;4.90;;;3.33;;
12871;SDS011;6504;53.766;9.626;2023-08-17T08:27:10;5.20;;;3.47;;
12871;SDS011;6504;53.766;9.626;2023-08-17T08:29:39;5.20;;;3.20;;
12871;SDS011;6504;53.766;9.626;2023-08-17T08:32:08;5.10;;;3.23;;
12871;SDS011;6504;53.766;9.626;2023-08-17T08:34:37;6.57;;;3.33;;
12871;SDS011;6504;53.766;9.626;2023-08-17T08:37:05;4.53;;;3.10;;
12871;SDS011;6504;53.766;9.626;2023-08-17T08:39:33;5.37;;;3.43;;
12871;SDS011;6504;53.766;9.626;2023-08-17T08:42:16;4.17;;;3.23;;
12871;SDS011;6504;53.766;9.626;2023-08-17T08:44:44;6.27;;;3.30;;
12871;SDS011;6504;53.766;9.626;2023-08-17T08:47:14;5.80;;;3.47;;
12871;SDS011;6504;53.766;9.626;2023-08-17T08:49:46;3.77;;;3.20;;
12871;SDS011;6504;53.766;9.626;2023-08-17T08:52:24;4.43;;;3.20;;
12871;SDS011;6504;53.766;9.626;2023-08-17T08:55:03;4.57;;;3.60;;
12871;SDS011;6504;53.766;9.626;2023-08-17T08:57:37;4.27;;;3.60;;
12871;SDS011;6504;53.766;9.626;2023-08-17T09:00:08;6.93;;;3.77;;
12871;SDS011;6504;53.766;9.626;2023-08-17T09:02:38;5.13;;;3.73;;
12871;SDS011;6504;53.766;9.626;2023-08-17T09:05:07;4.37;;;3.60;;
12871;SDS011;6504;53.766;9.626;2023-08-17T09:07:37;4.93;;;3.30;;
12871;SDS011;6504;53.766;9.626;2023-08-17T09:10:06;5.43;;;3.87;;
12871;SDS011;6504;53.766;9.626;2023-08-17T09:12:36;7.10;;;4.00;;
12871;SDS011;6504;53.766;9.626;2023-08-17T09:15:07;5.73;;;3.93;;
12871;SDS011;6504;53.766;9.626;2023-08-17T09:17:35;4.00;;;3.60;;
12871;SDS011;6504;53.766;9.626;2023-08-17T09:20:05;6.27;;;3.93;;
12871;SDS011;6504;53.766;9.626;2023-08-17T09:22:39;6.70;;;4.07;;
12871;SDS011;6504;53.766;9.626;2023-08-17T09:25:09;5.13;;;3.90;;
12871;SDS011;6504;53.766;9.626;2023-08-17T09:27:38;5.37;;;4.53;;
12871;SDS011;6504;53.766;9.626;2023-08-17T09:30:08;6.37;;;4.17;;
12871;SDS011;6504;53.766;9.626;2023-08-17T09:32:39;7.20;;;4.67;;
12871;SDS011;6504;53.766;9.626;2023-08-17T09:35:09;5.40;;;4.10;;
12871;SDS011;6504;53.766;9.626;2023-08-17T09:37:37;6.57;;;4.50;;
12871;SDS011;6504;53.766;9.626;2023-08-17T09:40:05;6.90;;;4.80;;
12871;SDS011;6504;53.766;9.626;2023-08-17T09:42:35;6.70;;;4.80;;
12871;SDS011;6504;53.766;9.626;2023-08-17T09:45:03;5.07;;;4.40;;
12871;SDS011;6504;53.766;9.626;2023-08-17T09:47:32;7.53;;;5.27;;
12871;SDS011;6504;53.766;9.626;2023-08-17T09:50:03;6.03;;;4.70;;
12871;SDS011;6504;53.766;9.626;2023-08-17T09:52:38;5.60;;;4.17;;
12871;SDS011;6504;53.766;9.626;2023-08-17T09:55:06;4.83;;;4.37;;
12871;SDS011;6504;53.766;9.626;2023-08-17T09:57:37;5.67;;;4.90;;
12871;SDS011;6504;53.766;9.626;2023-08-17T10:00:06;5.47;;;4.60;;
12871;SDS011;6504;53.766;9.626;2023-08-17T10:02:36;5.73;;;4.83;;
12871;SDS011;6504;53.766;9.626;2023-08-17T10:05:06;6.53;;;5.20;;
12871;SDS011;6504;53.766;9.626;2023-08-17T10:07:38;6.70;;;4.70;;
12871;SDS011;6504;53.766;9.626;2023-08-17T10:10:12;6.77;;;4.83;;
12871;SDS011;6504;53.766;9.626;2023-08-17T10:12:44;6.40;;;4.90;;
12871;SDS011;6504;53.766;9.626;2023-08-17T10:15:25;6.37;;;4.50;;
12871;SDS011;6504;53.766;9.626;2023-08-17T10:17:58;5.40;;;4.50;;
12871;SDS011;6504;53.766;9.626;2023-08-17T10:20:31;6.23;;;4.83;;
12871;SDS011;6504;53.766;9.626;2023-08-17T10:23:05;7.60;;;4.93;;
12871;SDS011;6504;53.766;9.626;2023-08-17T10:25:38;7.87;;;5.63;;
12871;SDS011;6504;53.766;9.626;2023-08-17T10:28:07;6.27;;;5.00;;
12871;SDS011;6504;53.766;9.626;2023-08-17T10:30:36;6.03;;;4.90;;
12871;SDS011;6504;53.766;9.626;2023-08-17T10:33:05;6.53;;;5.40;;
12871;SDS011;6504;53.766;9.626;2023-08-17T10:35:35;5.90;;;5.30;;
12871;SDS011;6504;53.766;9.626;2023-08-17T10:38:05;6.23;;;5.63;;
12871;SDS011;6504;53.766;9.626;2023-08-17T10:40:37;6.03;;;5.43;;
12871;SDS011;6504;53.766;9.626;2023-08-17T10:43:07;7.80;;;5.40;;
12871;SDS011;6504;53.766;9.626;2023-08-17T10:45:35;9.37;;;5.97;;
12871;SDS011;6504;53.766;9.626;2023-08-17T10:48:24;8.70;;;5.67;;
12871;SDS011;6504;53.766;9.626;2023-08-17T10:51:04;8.63;;;5.93;;
12871;SDS011;6504;53.766;9.626;2023-08-17T10:53:36;8.90;;;6.33;;
12871;SDS011;6504;53.766;9.626;2023-08-17T10:56:12;8.00;;;6.27;;
12871;SDS011;6504;53.766;9.626;2023-08-17T10:58:44;7.53;;;6.70;;
12871;SDS011;6504;53.766;9.626;2023-08-17T11:01:12;8.50;;;6.80;;
12871;SDS011;6504;53.766;9.626;2023-08-17T11:03:47;7.23;;;6.43;;
12871;SDS011;6504;53.766;9.626;2023-08-17T11:06:38;7.10;;;6.40;;
12871;SDS011;6504;53.766;9.626;2023-08-17T11:09:07;7.00;;;6.40;;
12871;SDS011;6504;53.766;9.626;2023-08-17T11:11:35;8.40;;;6.67;;
12871;SDS011;6504;53.766;9.626;2023-08-17T11:14:04;7.67;;;6.87;;
12871;SDS011;6504;53.766;9.626;2023-08-17T11:16:32;8.50;;;6.87;;
12871;SDS011;6504;53.766;9.626;2023-08-17T11:19:00;8.03;;;7.07;;
12871;SDS011;6504;53.766;9.626;2023-08-17T11:21:28;9.53;;;6.97;;
12871;SDS011;6504;53.766;9.626;2023-08-17T11:23:57;7.83;;;7.13;;
12871;SDS011;6504;53.766;9.626;2023-08-17T11:26:26;9.63;;;7.20;;
12871;SDS011;6504;53.766;9.626;2023-08-17T11:29:01;8.27;;;6.67;;
12871;SDS011;6504;53.766;9.626;2023-08-17T11:31:31;8.60;;;6.83;;
12871;SDS011;6504;53.766;9.626;2023-08-17T11:34:00;7.73;;;6.93;;
12871;SDS011;6504;53.766;9.626;2023-08-17T11:36:28;7.90;;;7.10;;
12871;SDS011;6504;53.766;9.626;2023-08-17T11:38:58;8.23;;;7.40;;
12871;SDS011;6504;53.766;9.626;2023-08-17T11:41:26;7.23;;;6.53;;
12871;SDS011;6504;53.766;9.626;2023-08-17T11:43:54;8.37;;;7.30;;
12871;SDS011;6504;53.766;9.626;2023-08-17T11:46:22;8.47;;;7.57;;
12871;SDS011;6504;53.766;9.626;2023-08-17T11:48:54;8.37;;;7.07;;
12871;SDS011;6504;53.766;9.626;2023-08-17T11:51:28;7.67;;;6.87;;
12871;SDS011;6504;53.766;9.626;2023-08-17T11:53:59;7.73;;;7.03;;
12871;SDS011;6504;53.766;9.626;2023-08-17T11:56:29;8.47;;;7.10;;
12871;SDS011;6504;53.766;9.626;2023-08-17T11:58:57;7.63;;;6.97;;
12871;SDS011;6504;53.766;9.626;2023-08-17T12:01:25;7.70;;;7.00;;
12871;SDS011;6504;53.766;9.626;2023-08-17T12:03:53;7.70;;;6.90;;
12871;SDS011;6504;53.766;9.626;2023-08-17T12:06:21;8.00;;;7.20;;
12871;SDS011;6504;53.766;9.626;2023-08-17T12:08:49;7.80;;;7.10;;
12871;SDS011;6504;53.766;9.626;2023-08-17T12:11:19;8.33;;;7.20;;
12871;SDS011;6504;53.766;9.626;2023-08-17T12:13:51;8.93;;;7.47;;
12871;SDS011;6504;53.766;9.626;2023-08-17T12:16:20;8.43;;;7.63;;
12871;SDS011;6504;53.766;9.626;2023-08-17T12:18:50;8.00;;;7.20;;
12871;SDS011;6504;53.766;9.626;2023-08-17T12:21:19;7.90;;;7.13;;
12871;SDS011;6504;53.766;9.626;2023-08-17T12:23:48;8.10;;;7.37;;
12871;SDS011;6504;53.766;9.626;2023-08-17T12:26:21;8.17;;;7.37;;
12871;SDS011;6504;53.766;9.626;2023-08-17T12:28:49;9.87;;;7.80;;
12871;SDS011;6504;53.766;9.626;2023-08-17T12:31:20;8.17;;;7.37;;
12871;SDS011;6504;53.766;9.626;2023-08-17T12:33:50;7.80;;;7.10;;
12871;SDS011;6504;53.766;9.626;2023-08-17T12:36:19;8.83;;;7.97;;
12871;SDS011;6504;53.766;9.626;2023-08-17T12:38:48;7.83;;;7.10;;
12871;SDS011;6504;53.766;9.626;2023-08-17T12:41:16;8.23;;;7.50;;
12871;SDS011;6504;53.766;9.626;2023-08-17T12:43:45;10.20;;;8.20;;
12871;SDS011;6504;53.766;9.626;2023-08-17T12:46:14;8.17;;;7.43;;
12871;SDS011;6504;53.766;9.626;2023-08-17T12:48:42;7.70;;;6.90;;
12871;SDS011;6504;53.766;9.626;2023-08-17T12:51:10;8.43;;;7.63;;
12871;SDS011;6504;53.766;9.626;2023-08-17T12:53:38;7.60;;;6.90;;
12871;SDS011;6504;53.766;9.626;2023-08-17T12:56:06;7.97;;;7.17;;
12871;SDS011;6504;53.766;9.626;2023-08-17T12:58:34;10.07;;;8.67;;
12871;SDS011;6504;53.766;9.626;2023-08-17T13:01:04;8.27;;;7.47;;
12871;SDS011;6504;53.766;9.626;2023-08-17T13:03:32;8.70;;;7.80;;
12871;SDS011;6504;53.766;9.626;2023-08-17T13:06:00;7.03;;;6.40;;
12871;SDS011;6504;53.766;9.626;2023-08-17T13:08:29;9.27;;;8.30;;
12871;SDS011;6504;53.766;9.626;2023-08-17T13:10:57;8.37;;;7.77;;
12871;SDS011;6504;53.766;9.626;2023-08-17T13:13:25;8.40;;;7.60;;
12871;SDS011;6504;53.766;9.626;2023-08-17T13:15:53;9.47;;;8.60;;
12871;SDS011;6504;53.766;9.626;2023-08-17T13:18:22;9.60;;;8.77;;
12871;SDS011;6504;53.766;9.626;2023-08-17T13:20:50;9.57;;;8.60;;
12871;SDS011;6504;53.766;9.626;2023-08-17T13:23:18;9.03;;;8.17;;
12871;SDS011;6504;53.766;9.626;2023-08-17T13:25:46;9.17;;;8.37;;
12871;SDS011;6504;53.766;9.626;2023-08-17T13:28:14;9.63;;;8.70;;
12871;SDS011;6504;53.766;9.626;2023-08-17T13:30:42;9.20;;;8.40;;
12871;SDS011;6504;53.766;9.626;2023-08-17T13:33:10;10.40;;;9.23;;
12871;SDS011;6504;53.766;9.626;2023-08-17T13:35:40;10.50;;;9.50;;
12871;SDS011;6504;53.766;9.626;2023-08-17T13:38:08;9.57;;;8.43;;
12871;SDS011;6504;53.766;9.626;2023-08-17T13:40:36;9.83;;;8.83;;
12871;SDS011;6504;53.766;9.626;2023-08-17T13:43:05;10.53;;;9.60;;
12871;SDS011;6504;53.766;9.626;2023-08-17T13:45:38;6.13;;;5.53;;
12871;SDS011;6504;53.766;9.626;2023-08-17T13:48:06;4.40;;;3.40;;
12871;SDS011;6504;53.766;9.626;2023-08-17T13:50:37;3.50;;;2.30;;
12871;SDS011;6504;53.766;9.626;2023-08-17T13:53:07;2.07;;;1.80;;
12871;SDS011;6504;53.766;9.626;2023-08-17T13:55:35;1.80;;;1.70;;
12871;SDS011;6504;53.766;9.626;2023-08-17T13:58:03;2.27;;;1.70;;
12871;SDS011;6504;53.766;9.626;2023-08-17T14:00:31;3.13;;;1.70;;
12871;SDS011;6504;53.766;9.626;2023-08-17T14:02:59;2.30;;;1.87;;
12871;SDS011;6504;53.766;9.626;2023-08-17T14:05:28;2.40;;;2.20;;
12871;SDS011;6504;53.766;9.626;2023-08-17T14:07:57;2.57;;;2.20;;
12871;SDS011;6504;53.766;9.626;2023-08-17T14:10:25;2.23;;;2.03;;
12871;SDS011;6504;53.766;9.626;2023-08-17T14:13:05;2.70;;;1.83;;
12871;SDS011;6504;53.766;9.626;2023-08-17T14:15:33;2.40;;;2.20;;
12871;SDS011;6504;53.766;9.626;2023-08-17T14:18:01;3.33;;;2.23;;
12871;SDS011;6504;53.766;9.626;2023-08-17T14:20:30;2.40;;;2.20;;
12871;SDS011;6504;53.766;9.626;2023-08-17T14:22:59;2.33;;;2.07;;
12871;SDS011;6504;53.766;9.626;2023-08-17T14:25:27;2.03;;;1.90;;
12871;SDS011;6504;53.766;9.626;2023-08-17T14:27:57;2.47;;;2.00;;
12871;SDS011;6504;53.766;9.626;2023-08-17T14:30:25;2.97;;;1.90;;
12871;SDS011;6504;53.766;9.626;2023-08-17T14:32:53;2.20;;;2.00;;
12871;SDS011;6504;53.766;9.626;2023-08-17T14:35:26;2.80;;;2.17;;
12871;SDS011;6504;53.766;9.626;2023-08-17T14:37:54;2.83;;;1.80;;
12871;SDS011;6504;53.766;9.626;2023-08-17T14:40:26;2.00;;;1.80;;
12871;SDS011;6504;53.766;9.626;2023-08-17T14:42:54;1.50;;;1.30;;
12871;SDS011;6504;53.766;9.626;2023-08-17T14:45:23;1.97;;;1.30;;
12871;SDS011;6504;53.766;9.626;2023-08-17T14:47:51;1.93;;;1.53;;
12871;SDS011;6504;53.766;9.626;2023-08-17T14:50:19;1.87;;;1.40;;
12871;SDS011;6504;53.766;9.626;2023-08-17T14:52:54;1.77;;;1.20;;
12871;SDS011;6504;53.766;9.626;2023-08-17T14:55:22;1.90;;;1.10;;
12871;SDS011;6504;53.766;9.626;2023-08-17T14:57:52;1.60;;;1.00;;
12871;SDS011;6504;53.766;9.626;2023-08-17T15:00:20;1.10;;;1.00;;
12871;SDS011;6504;53.766;9.626;2023-08-17T15:02:48;1.00;;;0.80;;
12871;SDS011;6504;53.766;9.626;2023-08-17T15:05:17;2.20;;;1.20;;
12871;SDS011;6504;53.766;9.626;2023-08-17T15:07:45;0.93;;;0.83;;
12871;SDS011;6504;53.766;9.626;2023-08-17T15:10:13;1.07;;;0.97;;
12871;SDS011;6504;53.766;9.626;2023-08-17T15:12:42;0.90;;;0.90;;